Latest  Newer  Older  Last 2 hours animation  Current image  Latest image 
Rain/snow radar  Infrared sat images 
Real-time lightning map

All time is UTC (add 2 hours to UTC in wintertime, 3 hours to UTC in DST for Latvia local time)

2019/02/17 17:50 EVRA 171750Z 34006KT CAVOK 01/M02 Q1021 R36/190095 NOSIG
2019/02/17 17:50 EVLA 171750Z AUTO 05002KT 9999 SCT052/// OVC067/// 03/01 Q1021
2019/02/17 17:50 EVVA 171750Z AUTO 00000KT 7000 NSC M01/M01 Q1021
2019/02/17 17:50 EYKA 171750Z 28003KT 7000 NSC 03/01 Q1021 R08/190095
2019/02/17 17:50 EYPA 171750Z VRB01KT 1200 0900S R19/P2000N BR PRFG OVC005 04/03 Q1022 R19/1///95
2019/02/17 17:50 EYSA 171750Z 30002KT 8000 NSC 01/01 Q1021 R32R/29//95 BLU TEMPO 6000 WHT
2019/02/17 17:50 EYVI 171750Z 31003KT 4600 BR SCT026 02/01 Q1020 R01/1///95 BECMG 3000 BR
2019/02/17 15:50 EEKA 171550Z 27006KT 220V330 CAVOK 01/M00 Q1020
2019/02/17 17:50 EEKE 171750Z AUTO 33004KT 9999NDV NSC 00/M01 Q1021
2019/02/17 13:50 EEPU 171350Z 29008KT CAVOK 03/M02 Q1017
2019/02/17 17:50 EETN 171750Z 30005KT CAVOK 01/M02 Q1019 R08/19//95 NOSIG
2019/02/17 17:50 EETU 171750Z AUTO 30007KT 9999 NCD 00/M04 Q1018
   RIGA AIRPORT     EVRA               56 55N  023 58E   10   X     T          6 LV
   LIEPAJA INTL     EVLA        26406  56 31N  021 06E    4   X                8 LV
   VENTPILS         EVVA               57 21N  021 33E    6   X                8 LV
   KAUNAS           EYKA               54 54N  023 55E   77   X     T          6 LT
   PALANGA INTL     EYPA               55 55N  021 03E   10   X                6 LT
   SIAULIAI INTL    EYSA               55 54N  023 24E  135   X     T          6 LT
   VILNIUS INTL     EYVI        26730  54 38N  025 17E  197   X     T          6 LT
   KARDLA           EEKA        26116  58 59N  022 50E    4   X                8 EE
   KURESSAARE       EEKE               58 14N  022 31E    4   X                8 EE
   PARNU            EEPU               58 25N  024 28E   14   X                8 EE
   TALLINN          EETN        26038  59 24N  024 49E   40   X     T          8 EE
   TARTU            EETU               58 19N  026 41E   67   X                8 EE

cloud coverage image from sat24.com and METAR data from weather.noaa.gov